METAR Data
IDs: Format: Raw Decoded Include TAF

Data at: 2347 UTC 29 May 2020

KRZL 292335Z AUTO 30009G15KT 10SM CLR 22/10 A3000 RMK AO2